Defiance, OH

5:22 AM EDT on August 23, 2014 (GMT -0400)
Defiance Memorial | Change Station
CLOSE
Current Station
Airport
Location: Defiance,
Elevation: 705 ft
Nearby Weather Stations

Elev 705 ft 41.34 °N, 84.43 °W | Updated 8 minutes ago

Mostly Cloudy
Mostly Cloudy
70 °F
Feels Like 70 °F
N
0
Wind Variable Wind from North

Today
High -- | Low -- °F
--% Chance of Precip.
Yesterday
High -- | Low -- °F
Precip. -- in
6:54 AM 8:24 PM
Waning Crescent, 4% visible
Pressure 29.99 in
Visibility 1.8 miles
Clouds Scattered Clouds 200 ft
Mostly Cloudy 800 ft
Dew Point 68 °F
Humidity 93%
Rainfall 0.00 in
Snow Depth Not available.
UV 0 out of 12
Pollen 6.60 out of 12
Air Quality Not available.
Flu Activity Not available.
SPECI KDFI 230914Z AUTO 00000KT 1 3/4SM BR SCT002 BKN008 21/20 A2999 RMK AO2 T02110200

More Conditions Fewer Conditions

Pressure 29.99 in
Visibility 1.8 miles
Clouds Scattered Clouds 200 ft
Mostly Cloudy 800 ft
Dew Point 68 °F
Humidity 93%
Rainfall 0.00 in
Snow Depth Not available.
UV 0 out of 12
Pollen 6.60 out of 12
Air Quality Not available.
Flu Activity Not available.
SPECI KDFI 230914Z AUTO 00000KT 1 3/4SM BR SCT002 BKN008 21/20 A2999 RMK AO2 T02110200

More Conditions Fewer Conditions

10-Day Weather Forecast

Almanac

Astronomy

Aug. 23, 2014 Rise Set
Actual Time 6:54 AM EDT 8:24 PM EDT
Civil Twilight 6:25 AM EDT 8:53 PM EDT
Nautical Twilight 5:50 AM EDT 9:28 PM EDT
Astronomical Twilight 5:13 AM EDT 10:05 PM EDT
Moon 5:09 AM EDT 7:08 PM EDT
Length of Visible Light 14h 27m
Length of Day
13h 29m
Tomorrow will be 2m 33s shorter.
Waning Crescent, 4% of the Moon is Illuminated
Today
Waning Crescent
Aug 25
New
Sep 2
First Quarter
Sep 8
Full
Sep 15
Last Quarter

Today's Extremes

State Highs State Lows

Community

WunderPhotos

Upload Photos

1,746,396 photos uploaded!

WunderBlogs® & News

By Dr. Jeff Masters
Director of Meteorology, Weather Underground
By Kari Strenfel
Meteorologist, Weather Underground
By Christopher C. Burt
Weather Historian, Weather Underground
August 23, 2014
August 23, 2014
August 22, 2014

Nearby

Snow Depth

Station Depth Elevation
No new snow has been reported.

Earthquake Activity

City Distance Mag. Time & Date
No recent earthquake activity has been reported nearby.
Minimum magnitude displayed is 2.5.

Coastal Water Temperatures

Place Temperature
No Stations Reporting

Nearby Weather Stations